createdAt,value
2018-07-12T00:00:39.830Z,19.58
2018-07-12T00:01:39.733Z,19.59
2018-07-12T00:02:39.741Z,19.61
2018-07-12T00:03:39.730Z,19.59
2018-07-12T00:04:39.769Z,19.58
2018-07-12T00:05:39.785Z,19.57
2018-07-12T00:06:39.749Z,19.56
2018-07-12T00:07:39.755Z,19.55
2018-07-12T00:08:39.721Z,19.5
2018-07-12T00:09:39.729Z,19.52
2018-07-12T00:10:39.776Z,19.53
2018-07-12T00:11:39.732Z,19.54
2018-07-12T00:12:39.758Z,19.58
2018-07-12T00:13:39.757Z,19.58
2018-07-12T00:14:39.792Z,19.6
2018-07-12T00:15:39.726Z,19.62
2018-07-12T00:16:39.741Z,19.66
2018-07-12T00:17:39.756Z,19.67
2018-07-12T00:18:39.751Z,19.68
2018-07-12T00:19:39.779Z,19.61
2018-07-12T00:20:39.776Z,19.62
2018-07-12T00:21:39.817Z,19.62
2018-07-12T00:22:39.775Z,19.65
2018-07-12T00:23:39.725Z,19.64
2018-07-12T00:24:39.768Z,19.66
2018-07-12T00:25:39.772Z,19.65
2018-07-12T00:26:39.809Z,19.6
2018-07-12T00:27:39.740Z,19.61
2018-07-12T00:28:39.813Z,19.63
2018-07-12T00:29:39.736Z,19.58
2018-07-12T00:30:39.873Z,19.59
2018-07-12T00:31:39.853Z,19.59
2018-07-12T00:32:39.861Z,19.6
2018-07-12T00:33:40.219Z,19.6
2018-07-12T00:34:39.780Z,19.59
2018-07-12T00:35:39.783Z,19.6
2018-07-12T00:36:39.722Z,19.61
2018-07-12T00:37:39.753Z,19.58
2018-07-12T00:38:39.792Z,19.59
2018-07-12T00:39:39.742Z,19.61
2018-07-12T00:40:39.731Z,19.59
2018-07-12T00:41:39.794Z,19.55
2018-07-12T00:42:39.870Z,19.55
2018-07-12T00:43:39.749Z,19.58
2018-07-12T00:44:39.766Z,19.58
2018-07-12T00:45:39.757Z,19.58
2018-07-12T00:46:39.786Z,19.56
2018-07-12T00:47:39.796Z,19.56
2018-07-12T00:48:39.807Z,19.59
2018-07-12T00:49:39.759Z,19.6
2018-07-12T00:50:39.842Z,19.6
2018-07-12T00:51:39.804Z,19.6
2018-07-12T00:52:39.949Z,19.6
2018-07-12T00:53:39.762Z,19.59
2018-07-12T00:54:39.752Z,19.59
2018-07-12T00:55:39.810Z,19.59
2018-07-12T00:56:39.797Z,19.59
2018-07-12T00:57:39.825Z,19.6
2018-07-12T00:58:39.812Z,19.6
2018-07-12T00:59:39.799Z,19.6
2018-07-12T01:00:39.851Z,19.6
2018-07-12T01:01:39.782Z,19.59
2018-07-12T01:02:39.794Z,19.58
2018-07-12T01:03:39.978Z,19.57
2018-07-12T01:04:39.792Z,19.56
2018-07-12T01:05:39.893Z,19.55
2018-07-12T01:06:39.852Z,19.56
2018-07-12T01:07:39.804Z,19.52
2018-07-12T01:08:39.854Z,19.5
2018-07-12T01:09:39.779Z,19.44
2018-07-12T01:10:39.777Z,19.44
2018-07-12T01:11:39.816Z,19.44
2018-07-12T01:12:39.809Z,19.46
2018-07-12T01:13:39.843Z,19.47
2018-07-12T01:14:39.979Z,19.46
2018-07-12T01:15:39.946Z,19.46
2018-07-12T01:16:40.103Z,19.48
2018-07-12T01:17:40.145Z,19.44
2018-07-12T01:18:39.853Z,19.48
2018-07-12T01:19:39.881Z,19.48
2018-07-12T01:20:39.995Z,19.44
2018-07-12T01:21:39.815Z,19.39
2018-07-12T01:22:39.981Z,19.37
2018-07-12T01:23:39.841Z,19.37
2018-07-12T01:24:39.956Z,19.35
2018-07-12T01:25:39.859Z,19.36
2018-07-12T01:26:39.845Z,19.35
2018-07-12T01:27:39.790Z,19.3
2018-07-12T01:28:39.833Z,19.33
2018-07-12T01:29:39.913Z,19.34
2018-07-12T01:30:39.932Z,19.34
2018-07-12T01:31:39.979Z,19.3
2018-07-12T01:32:39.998Z,19.32
2018-07-12T01:33:39.897Z,19.27
2018-07-12T01:34:39.966Z,19.28
2018-07-12T01:35:39.941Z,19.28
2018-07-12T01:36:39.865Z,19.27
2018-07-12T01:37:39.871Z,19.26
2018-07-12T01:38:39.816Z,19.21
2018-07-12T01:39:39.792Z,19.22
2018-07-12T01:40:39.833Z,19.21
2018-07-12T01:41:39.864Z,19.22
2018-07-12T01:42:39.782Z,19.2
2018-07-12T01:43:40.085Z,19.22
2018-07-12T01:44:39.857Z,19.25
2018-07-12T01:45:39.799Z,19.24
2018-07-12T01:46:39.903Z,19.23
2018-07-12T01:47:39.802Z,19.23
2018-07-12T01:48:39.848Z,19.24
2018-07-12T01:49:39.830Z,19.27
2018-07-12T01:50:39.821Z,19.29
2018-07-12T01:51:39.869Z,19.3
2018-07-12T01:52:39.883Z,19.33
2018-07-12T01:53:39.831Z,19.33
2018-07-12T01:54:39.826Z,19.34
2018-07-12T01:55:39.925Z,19.33
2018-07-12T01:56:39.844Z,19.29
2018-07-12T01:57:39.838Z,19.29
2018-07-12T01:58:40.097Z,19.29
2018-07-12T01:59:39.825Z,19.29
2018-07-12T02:00:41.028Z,19.29
2018-07-12T02:01:39.999Z,19.29
2018-07-12T02:02:39.830Z,19.29
2018-07-12T02:03:39.823Z,19.32
2018-07-12T02:04:39.877Z,19.3
2018-07-12T02:05:39.885Z,19.33
2018-07-12T02:06:39.822Z,19.3
2018-07-12T02:07:39.828Z,19.3
2018-07-12T02:08:39.850Z,19.33
2018-07-12T02:09:39.911Z,19.31
2018-07-12T02:10:39.878Z,19.29
2018-07-12T02:11:39.835Z,19.28
2018-07-12T02:12:39.842Z,19.27
2018-07-12T02:13:40.007Z,19.28
2018-07-12T02:14:39.850Z,19.25
2018-07-12T02:15:39.851Z,19.23
2018-07-12T02:16:39.842Z,19.25
2018-07-12T02:17:39.832Z,19.23
2018-07-12T02:18:39.878Z,19.25
2018-07-12T02:19:39.848Z,19.27
2018-07-12T02:20:39.811Z,19.25
2018-07-12T02:21:39.827Z,19.27
2018-07-12T02:22:39.866Z,19.23
2018-07-12T02:23:39.857Z,19.23
2018-07-12T02:24:39.838Z,19.21
2018-07-12T02:25:39.864Z,19.2
2018-07-12T02:26:39.857Z,19.19
2018-07-12T02:27:40.995Z,19.16
2018-07-12T02:28:39.901Z,19.17
2018-07-12T02:29:39.892Z,19.19
2018-07-12T02:30:39.927Z,19.16
2018-07-12T02:31:39.849Z,19.16
2018-07-12T02:32:39.872Z,19.14
2018-07-12T02:33:39.861Z,19.1
2018-07-12T02:34:39.876Z,19.13
2018-07-12T02:35:39.836Z,19.07
2018-07-12T02:36:39.903Z,19.12
2018-07-12T02:37:39.853Z,19.14
2018-07-12T02:38:39.843Z,19.13
2018-07-12T02:39:39.911Z,19.13
2018-07-12T02:40:39.918Z,19.16
2018-07-12T02:41:39.860Z,19.16
2018-07-12T02:42:39.860Z,19.14
2018-07-12T02:43:39.855Z,19.15
2018-07-12T02:44:39.917Z,19.12
2018-07-12T02:45:39.867Z,19.12
2018-07-12T02:46:39.886Z,19.14
2018-07-12T02:47:39.852Z,19.13
2018-07-12T02:48:39.841Z,19.11
2018-07-12T02:49:39.868Z,19.1
2018-07-12T02:50:39.901Z,19.13
2018-07-12T02:51:39.856Z,19.1
2018-07-12T02:52:39.859Z,19.06
2018-07-12T02:53:39.867Z,19.07
2018-07-12T02:54:39.843Z,19.03
2018-07-12T02:55:39.816Z,19.04
2018-07-12T02:56:39.905Z,18.98
2018-07-12T02:57:39.882Z,19
2018-07-12T02:58:39.866Z,19
2018-07-12T02:59:39.842Z,18.93
2018-07-12T03:00:39.855Z,18.93
2018-07-12T03:01:39.956Z,18.95
2018-07-12T03:02:39.941Z,18.94
2018-07-12T03:03:39.882Z,18.91
2018-07-12T03:04:40.066Z,18.87
2018-07-12T03:05:39.853Z,18.92
2018-07-12T03:06:39.994Z,18.92
2018-07-12T03:07:39.857Z,18.93
2018-07-12T03:08:40.054Z,18.91
2018-07-12T03:09:40.057Z,18.92
2018-07-12T03:10:39.960Z,18.91
2018-07-12T03:11:39.910Z,18.94
2018-07-12T03:12:40.001Z,18.9
2018-07-12T03:13:40.377Z,18.88
2018-07-12T03:14:40.340Z,18.9
2018-07-12T03:15:39.869Z,18.92
2018-07-12T03:16:40.174Z,18.95
2018-07-12T03:17:39.922Z,18.87
2018-07-12T03:18:39.938Z,18.7
2018-07-12T03:19:39.863Z,18.73
2018-07-12T03:20:39.882Z,18.74
2018-07-12T03:21:39.857Z,18.78
2018-07-12T03:22:40.194Z,18.77
2018-07-12T03:23:39.912Z,18.79
2018-07-12T03:24:39.943Z,18.77
2018-07-12T03:25:39.888Z,18.76
2018-07-12T03:26:40.169Z,18.76
2018-07-12T03:27:39.964Z,18.78
2018-07-12T03:28:39.969Z,18.79
2018-07-12T03:29:39.911Z,18.75
2018-07-12T03:30:39.892Z,18.67
2018-07-12T03:31:40.032Z,18.68
2018-07-12T03:32:39.926Z,18.73
2018-07-12T03:33:40.183Z,18.76
2018-07-12T03:34:39.849Z,18.76
2018-07-12T03:35:39.912Z,18.74
2018-07-12T03:36:39.945Z,18.68
2018-07-12T03:37:39.863Z,18.63
2018-07-12T03:38:39.913Z,18.61
2018-07-12T03:39:39.927Z,18.59
2018-07-12T03:40:40.111Z,18.59
2018-07-12T03:41:39.858Z,18.57
2018-07-12T03:42:39.906Z,18.58
2018-07-12T03:43:39.860Z,18.57
2018-07-12T03:44:39.912Z,18.58
2018-07-12T03:45:39.875Z,18.57
2018-07-12T03:46:39.879Z,18.59
2018-07-12T03:47:40.160Z,18.54
2018-07-12T03:48:40.463Z,18.6
2018-07-12T03:49:39.905Z,18.61
2018-07-12T03:50:39.919Z,18.55
2018-07-12T03:51:39.927Z,18.57
2018-07-12T03:52:39.906Z,18.54
2018-07-12T03:53:39.886Z,18.47
2018-07-12T03:54:39.848Z,18.47
2018-07-12T03:55:39.996Z,18.47
2018-07-12T03:56:39.979Z,18.51
2018-07-12T03:57:39.994Z,18.53
2018-07-12T03:58:39.893Z,18.55
2018-07-12T03:59:39.890Z,18.5
2018-07-12T04:00:39.904Z,18.52
2018-07-12T04:01:39.891Z,18.5
2018-07-12T04:02:39.939Z,18.44
2018-07-12T04:03:40.610Z,18.45
2018-07-12T04:04:41.166Z,18.39
2018-07-12T04:05:39.867Z,18.41
2018-07-12T04:06:39.879Z,18.4
2018-07-12T04:07:39.957Z,18.34
2018-07-12T04:08:39.878Z,18.34
2018-07-12T04:09:39.893Z,18.25
2018-07-12T04:10:39.905Z,18.26
2018-07-12T04:11:39.931Z,18.3
2018-07-12T04:12:39.886Z,18.29
2018-07-12T04:13:39.882Z,18.3
2018-07-12T04:14:40.045Z,18.26
2018-07-12T04:15:40.164Z,18.27
2018-07-12T04:16:39.888Z,18.29
2018-07-12T04:17:39.953Z,18.22
2018-07-12T04:18:40.179Z,18.2
2018-07-12T04:19:39.913Z,18.23
2018-07-12T04:20:40.043Z,18.25
2018-07-12T04:21:40.453Z,18.31
2018-07-12T04:22:39.908Z,18.35
2018-07-12T04:23:39.919Z,18.38
2018-07-12T04:24:39.970Z,18.33
2018-07-12T04:25:39.994Z,18.24
2018-07-12T04:26:39.903Z,18.25
2018-07-12T04:27:39.926Z,18.3
2018-07-12T04:28:40.055Z,18.34
2018-07-12T04:29:40.116Z,18.38
2018-07-12T04:30:41.347Z,18.41
2018-07-12T04:31:40.092Z,18.42
2018-07-12T04:32:40.204Z,18.36
2018-07-12T04:33:39.920Z,18.38
2018-07-12T04:34:40.787Z,18.44
2018-07-12T04:35:39.928Z,18.47
2018-07-12T04:36:40.508Z,18.48
2018-07-12T04:37:40.624Z,18.48
2018-07-12T04:38:40.288Z,18.51
2018-07-12T04:39:39.924Z,18.57
2018-07-12T04:40:40.024Z,18.5
2018-07-12T04:41:39.909Z,18.49
2018-07-12T04:42:39.909Z,18.42
2018-07-12T04:43:39.965Z,18.44
2018-07-12T04:44:39.921Z,18.44
2018-07-12T04:45:39.943Z,18.44
2018-07-12T04:46:39.923Z,18.44
2018-07-12T04:47:39.888Z,18.46
2018-07-12T04:48:39.905Z,18.47
2018-07-12T04:49:39.914Z,18.4
2018-07-12T04:50:39.992Z,18.36
2018-07-12T04:51:40.087Z,18.28
2018-07-12T04:52:39.952Z,18.28
2018-07-12T04:53:39.942Z,18.34
2018-07-12T04:54:40.022Z,18.32
2018-07-12T04:55:39.942Z,18.31
2018-07-12T04:56:39.991Z,18.27
2018-07-12T04:57:39.931Z,18.26
2018-07-12T04:58:40.216Z,18.26
2018-07-12T04:59:39.964Z,18.26
2018-07-12T05:00:39.930Z,18.25
2018-07-12T05:01:40.086Z,18.31
2018-07-12T05:02:39.944Z,18.32
2018-07-12T05:03:39.913Z,18.3
2018-07-12T05:04:39.914Z,18.23
2018-07-12T05:05:40.246Z,18.24
2018-07-12T05:06:39.960Z,18.24
2018-07-12T05:07:39.938Z,18.23
2018-07-12T05:08:40.018Z,18.28
2018-07-12T05:09:39.975Z,18.29
2018-07-12T05:10:39.928Z,18.34
2018-07-12T05:11:39.909Z,18.37
2018-07-12T05:12:39.940Z,18.35
2018-07-12T05:13:39.939Z,18.35
2018-07-12T05:14:39.953Z,18.4
2018-07-12T05:15:40.019Z,18.44
2018-07-12T05:16:39.921Z,18.47
2018-07-12T05:17:39.933Z,18.49
2018-07-12T05:18:39.983Z,18.47
2018-07-12T05:19:39.994Z,18.39
2018-07-12T05:20:39.952Z,18.44
2018-07-12T05:21:39.959Z,18.38
2018-07-12T05:22:39.971Z,18.33
2018-07-12T05:23:39.967Z,18.28
2018-07-12T05:24:39.930Z,18.21
2018-07-12T05:25:39.947Z,18.23
2018-07-12T05:26:39.949Z,18.12
2018-07-12T05:27:39.943Z,18.16
2018-07-12T05:28:39.976Z,18.23
2018-07-12T05:29:39.958Z,18.26
2018-07-12T05:30:40.241Z,18.23
2018-07-12T05:31:39.941Z,18.24
2018-07-12T05:32:39.979Z,18.25
2018-07-12T05:33:39.965Z,18.27
2018-07-12T05:34:39.992Z,18.26
2018-07-12T05:35:39.961Z,18.27
2018-07-12T05:36:39.932Z,18.32
2018-07-12T05:37:39.953Z,18.35
2018-07-12T05:38:40.170Z,18.4
2018-07-12T05:39:40.118Z,18.41
2018-07-12T05:40:39.982Z,18.41
2018-07-12T05:41:39.973Z,18.38
2018-07-12T05:42:40.235Z,18.4
2018-07-12T05:43:39.944Z,18.38
2018-07-12T05:44:39.949Z,18.37
2018-07-12T05:45:39.994Z,18.39
2018-07-12T05:46:40.489Z,18.39
2018-07-12T05:47:39.979Z,18.41
2018-07-12T05:48:39.994Z,18.42
2018-07-12T05:49:39.968Z,18.43
2018-07-12T05:50:40.021Z,18.42
2018-07-12T05:51:40.112Z,18.4
2018-07-12T05:52:39.957Z,18.46
2018-07-12T05:53:40.111Z,18.43
2018-07-12T05:54:40.107Z,18.43
2018-07-12T05:55:39.934Z,18.43
2018-07-12T05:56:40.234Z,18.46
2018-07-12T05:57:39.958Z,18.51
2018-07-12T05:58:39.983Z,18.49
2018-07-12T05:59:40.081Z,18.51
2018-07-12T06:00:39.981Z,18.56
2018-07-12T06:01:39.984Z,18.58
2018-07-12T06:02:39.948Z,18.59
2018-07-12T06:03:40.171Z,18.6
2018-07-12T06:04:40.125Z,18.62
2018-07-12T06:05:40.019Z,18.67
2018-07-12T06:06:40.010Z,18.64
2018-07-12T06:07:40.067Z,18.65
2018-07-12T06:08:40.028Z,18.66
2018-07-12T06:09:39.960Z,18.61
2018-07-12T06:10:40.043Z,18.65
2018-07-12T06:11:40.076Z,18.65
2018-07-12T06:12:39.987Z,18.73
2018-07-12T06:13:40.033Z,18.78
2018-07-12T06:14:39.975Z,18.78
2018-07-12T06:15:40.104Z,18.83
2018-07-12T06:16:39.969Z,18.9
2018-07-12T06:17:40.378Z,18.88
2018-07-12T06:18:40.191Z,18.92
2018-07-12T06:19:39.967Z,18.93
2018-07-12T06:20:40.113Z,18.96
2018-07-12T06:21:40.301Z,18.99
2018-07-12T06:22:40.031Z,18.93
2018-07-12T06:23:39.998Z,18.95
2018-07-12T06:24:40.627Z,18.93
2018-07-12T06:25:40.159Z,18.93
2018-07-12T06:26:39.984Z,18.87
2018-07-12T06:27:40.129Z,18.83
2018-07-12T06:28:40.164Z,18.88
2018-07-12T06:29:40.072Z,18.94
2018-07-12T06:30:40.226Z,18.96
2018-07-12T06:31:40.087Z,18.97
2018-07-12T06:32:40.015Z,19.01
2018-07-12T06:33:39.957Z,18.95
2018-07-12T06:34:39.977Z,18.92
2018-07-12T06:35:40.120Z,18.89
2018-07-12T06:36:40.171Z,19
2018-07-12T06:37:40.072Z,18.89
2018-07-12T06:38:40.040Z,18.87
2018-07-12T06:39:39.990Z,18.96
2018-07-12T06:40:40.092Z,19.04
2018-07-12T06:41:40.172Z,19.09
2018-07-12T06:42:41.062Z,19.12
2018-07-12T06:43:39.955Z,19.13
2018-07-12T06:44:40.083Z,19.13
2018-07-12T06:45:39.992Z,19.1
2018-07-12T06:46:39.993Z,19.07
2018-07-12T06:47:40.014Z,19.04
2018-07-12T06:48:40.019Z,19.09
2018-07-12T06:49:39.972Z,19.18
2018-07-12T06:50:40.152Z,19.14
2018-07-12T06:51:40.083Z,19.12
2018-07-12T06:52:40.038Z,19.13
2018-07-12T06:53:40.097Z,19.16
2018-07-12T06:54:40.320Z,19.18
2018-07-12T06:55:39.998Z,19.21
2018-07-12T06:56:40.011Z,19.27
2018-07-12T06:57:40.132Z,19.27
2018-07-12T06:58:39.986Z,19.32
2018-07-12T06:59:40.096Z,19.37
2018-07-12T07:00:40.380Z,19.41
2018-07-12T07:01:40.004Z,19.37
2018-07-12T07:02:39.994Z,19.36
2018-07-12T07:03:39.989Z,19.35
2018-07-12T07:04:40.066Z,19.4
2018-07-12T07:05:39.988Z,19.47
2018-07-12T07:06:40.157Z,19.47
2018-07-12T07:07:40.075Z,19.49
2018-07-12T07:08:40.189Z,19.54
2018-07-12T07:09:40.831Z,19.58
2018-07-12T07:10:40.053Z,19.62
2018-07-12T07:11:40.110Z,19.65
2018-07-12T07:12:40.135Z,19.65
2018-07-12T07:13:40.100Z,19.67
2018-07-12T07:14:40.488Z,19.81
2018-07-12T07:15:40.083Z,19.85
2018-07-12T07:16:40.029Z,19.85
2018-07-12T07:17:39.989Z,19.91
2018-07-12T07:18:40.111Z,19.86
2018-07-12T07:19:40.293Z,19.84
2018-07-12T07:20:40.077Z,20.01
2018-07-12T07:21:40.188Z,20.01
2018-07-12T07:22:40.119Z,19.99
2018-07-12T07:23:40.131Z,20.11
2018-07-12T07:24:40.057Z,20.21
2018-07-12T07:25:40.962Z,20.12
2018-07-12T07:26:40.071Z,20.2
2018-07-12T07:27:40.112Z,20.18
2018-07-12T07:28:40.103Z,20.22
2018-07-12T07:29:40.056Z,20.28
2018-07-12T07:30:40.017Z,20.33
2018-07-12T07:31:40.369Z,20.32
2018-07-12T07:32:40.141Z,20.28
2018-07-12T07:33:40.087Z,20.21
2018-07-12T07:34:40.589Z,20.17
2018-07-12T07:35:40.662Z,20.14
2018-07-12T07:36:40.168Z,20.18
2018-07-12T07:37:40.155Z,20.26
2018-07-12T07:38:40.079Z,20.28
2018-07-12T07:39:40.321Z,20.3
2018-07-12T07:40:40.125Z,20.37
2018-07-12T07:41:40.081Z,20.33
2018-07-12T07:42:40.032Z,20.41
2018-07-12T07:43:40.089Z,20.46
2018-07-12T07:44:40.071Z,20.52
2018-07-12T07:45:40.118Z,20.53
2018-07-12T07:46:40.126Z,20.51
2018-07-12T07:47:40.095Z,20.55
2018-07-12T07:48:40.139Z,20.54
2018-07-12T07:49:40.180Z,20.57
2018-07-12T07:50:40.082Z,20.53
2018-07-12T07:51:40.045Z,20.53
2018-07-12T07:52:40.111Z,20.54
2018-07-12T07:53:40.171Z,20.46
2018-07-12T07:54:40.024Z,20.4
2018-07-12T07:55:40.112Z,20.41
2018-07-12T07:56:40.126Z,20.43
2018-07-12T07:57:40.143Z,20.36
2018-07-12T07:58:40.169Z,20.28
2018-07-12T07:59:40.053Z,20.21
2018-07-12T08:00:40.056Z,20.19
2018-07-12T08:01:40.473Z,20.1
2018-07-12T08:02:40.083Z,20.02
2018-07-12T08:03:40.048Z,19.98
2018-07-12T08:04:40.088Z,19.96
2018-07-12T08:05:40.084Z,19.96
2018-07-12T08:06:40.074Z,20.04
2018-07-12T08:07:40.093Z,20.06
2018-07-12T08:08:40.062Z,20.15
2018-07-12T08:09:40.071Z,20.27
2018-07-12T08:10:40.037Z,20.36
2018-07-12T08:11:40.094Z,20.37
2018-07-12T08:12:40.035Z,20.49
2018-07-12T08:13:40.050Z,20.38
2018-07-12T08:14:40.069Z,20.56
2018-07-12T08:15:40.045Z,20.71
2018-07-12T08:16:40.088Z,20.72
2018-07-12T08:17:40.050Z,20.68
2018-07-12T08:18:40.020Z,20.67
2018-07-12T08:19:40.170Z,20.72
2018-07-12T08:20:40.145Z,20.59
2018-07-12T08:21:40.028Z,20.63
2018-07-12T08:22:40.038Z,20.68
2018-07-12T08:23:40.130Z,20.72
2018-07-12T08:24:40.205Z,20.79
2018-07-12T08:25:40.066Z,20.75
2018-07-12T08:26:40.084Z,20.67
2018-07-12T08:27:40.136Z,20.66
2018-07-12T08:28:40.109Z,20.63
2018-07-12T08:29:40.154Z,20.64
2018-07-12T08:30:40.105Z,20.67
2018-07-12T08:31:40.150Z,20.68
2018-07-12T08:32:40.267Z,20.64
2018-07-12T08:33:40.140Z,20.67
2018-07-12T08:34:40.184Z,20.7
2018-07-12T08:35:40.084Z,20.68
2018-07-12T08:36:40.195Z,20.69
2018-07-12T08:37:40.200Z,20.7
2018-07-12T08:38:40.097Z,20.68
2018-07-12T08:39:40.209Z,20.71
2018-07-12T08:40:41.059Z,20.82
2018-07-12T08:41:40.276Z,20.85
2018-07-12T08:42:40.522Z,20.87
2018-07-12T08:43:40.209Z,20.86
2018-07-12T08:44:40.259Z,20.85
2018-07-12T08:45:40.343Z,20.82
2018-07-12T08:46:40.241Z,20.81
2018-07-12T08:47:40.172Z,20.84
2018-07-12T08:48:40.175Z,20.9
2018-07-12T08:49:40.206Z,20.97
2018-07-12T08:50:40.178Z,21.03
2018-07-12T08:51:40.177Z,21.01
2018-07-12T08:52:40.146Z,21.09
2018-07-12T08:53:40.126Z,21.13
2018-07-12T08:54:40.850Z,21.2
2018-07-12T08:55:40.061Z,21.21
2018-07-12T08:56:40.147Z,21.24
2018-07-12T08:57:40.103Z,21.33
2018-07-12T08:58:40.251Z,21.32
2018-07-12T08:59:40.180Z,21.4
2018-07-12T09:00:40.339Z,21.36
2018-07-12T09:01:40.138Z,21.38
2018-07-12T09:02:40.773Z,21.4
2018-07-12T09:03:40.255Z,21.36
2018-07-12T09:04:40.291Z,21.44
2018-07-12T09:05:40.235Z,21.34
2018-07-12T09:06:40.153Z,21.42
2018-07-12T09:07:40.131Z,21.53
2018-07-12T09:08:40.167Z,21.63
2018-07-12T09:09:40.121Z,21.7
2018-07-12T09:10:40.129Z,21.51
2018-07-12T09:11:40.163Z,21.54
2018-07-12T09:12:40.411Z,21.53
2018-07-12T09:13:40.091Z,21.56
2018-07-12T09:14:40.143Z,21.55
2018-07-12T09:15:40.569Z,21.56
2018-07-12T09:16:40.103Z,21.5
2018-07-12T09:17:40.076Z,21.52
2018-07-12T09:18:40.110Z,21.55
2018-07-12T09:19:40.111Z,21.56
2018-07-12T09:20:40.282Z,21.58
2018-07-12T09:21:40.515Z,21.57
2018-07-12T09:22:40.130Z,21.51
2018-07-12T09:23:40.130Z,21.45
2018-07-12T09:24:40.062Z,21.48
2018-07-12T09:25:40.125Z,21.4
2018-07-12T09:26:40.169Z,21.43
2018-07-12T09:27:40.099Z,21.47
2018-07-12T09:28:40.069Z,21.56
2018-07-12T09:29:40.151Z,21.54
2018-07-12T09:30:40.347Z,21.4
2018-07-12T09:31:40.121Z,21.44
2018-07-12T09:32:40.156Z,21.52
2018-07-12T09:33:40.161Z,21.52
2018-07-12T09:34:40.114Z,21.52
2018-07-12T09:35:40.156Z,21.61
2018-07-12T09:36:40.274Z,21.7
2018-07-12T09:37:40.115Z,21.68
2018-07-12T09:38:40.233Z,21.68
2018-07-12T09:39:40.693Z,21.64
2018-07-12T09:40:40.255Z,21.7
2018-07-12T09:41:40.094Z,21.7
2018-07-12T09:42:40.225Z,21.77
2018-07-12T09:43:40.161Z,21.76
2018-07-12T09:44:40.260Z,21.75
2018-07-12T09:45:40.107Z,21.74
2018-07-12T09:46:40.096Z,21.74
2018-07-12T09:47:40.316Z,21.83
2018-07-12T09:48:40.170Z,21.9
2018-07-12T09:49:40.122Z,21.98
2018-07-12T09:50:40.166Z,22.03
2018-07-12T09:51:40.182Z,22.08
2018-07-12T09:52:40.182Z,22.05
2018-07-12T09:53:40.111Z,22.05
2018-07-12T09:54:40.179Z,22.01
2018-07-12T09:55:41.462Z,22.02
2018-07-12T09:56:41.804Z,22.01
2018-07-12T09:57:43.778Z,22.03
2018-07-12T09:58:40.188Z,22.08
2018-07-12T09:59:40.116Z,22.05
2018-07-12T10:00:40.336Z,22.01
2018-07-12T10:01:40.159Z,22.03
2018-07-12T10:02:40.127Z,22.04
2018-07-12T10:03:40.123Z,22
2018-07-12T10:04:40.715Z,21.99
2018-07-12T10:05:40.615Z,21.85
2018-07-12T10:06:40.323Z,21.96
2018-07-12T10:07:40.147Z,21.95
2018-07-12T10:08:40.301Z,21.99
2018-07-12T10:09:40.163Z,21.91
2018-07-12T10:10:40.448Z,21.99
2018-07-12T10:11:40.265Z,22.04
2018-07-12T10:12:40.129Z,22.16
2018-07-12T10:13:40.158Z,22.23
2018-07-12T10:14:40.454Z,22.26
2018-07-12T10:15:40.134Z,22.31
2018-07-12T10:16:40.094Z,22.32
2018-07-12T10:17:40.161Z,22.21
2018-07-12T10:18:40.199Z,22.22
2018-07-12T10:19:40.114Z,22.16
2018-07-12T10:20:40.140Z,22.09
2018-07-12T10:21:40.150Z,22.07
2018-07-12T10:22:40.142Z,22.1
2018-07-12T10:23:40.799Z,22.09
2018-07-12T10:24:40.168Z,22.13
2018-07-12T10:25:40.151Z,22.17
2018-07-12T10:26:40.164Z,22.21
2018-07-12T10:27:40.136Z,22.32
2018-07-12T10:28:40.113Z,22.19
2018-07-12T10:29:40.451Z,22.26
2018-07-12T10:30:40.414Z,22.22
2018-07-12T10:31:40.163Z,22.26
2018-07-12T10:32:40.137Z,22.29
2018-07-12T10:33:40.148Z,22.33
2018-07-12T10:34:40.124Z,22.45
2018-07-12T10:35:40.140Z,22.35
2018-07-12T10:36:40.153Z,22.33
2018-07-12T10:37:40.133Z,22.34
2018-07-12T10:38:40.132Z,22.43
2018-07-12T10:39:40.147Z,22.42
2018-07-12T10:40:40.132Z,22.39
2018-07-12T10:41:40.135Z,22.39
2018-07-12T10:42:40.161Z,22.3
2018-07-12T10:43:40.170Z,22.27
2018-07-12T10:44:40.152Z,22.22
2018-07-12T10:45:40.246Z,22.2
2018-07-12T10:46:40.340Z,22.27
2018-07-12T10:47:40.142Z,22.4
2018-07-12T10:48:40.143Z,22.48
2018-07-12T10:49:40.305Z,22.49
2018-07-12T10:50:40.190Z,22.53
2018-07-12T10:51:40.158Z,22.78
2018-07-12T10:52:40.216Z,22.73
2018-07-12T10:53:40.178Z,22.76
2018-07-12T10:54:40.519Z,22.88
2018-07-12T10:55:40.244Z,22.89
2018-07-12T10:56:40.434Z,22.85
2018-07-12T10:57:40.160Z,22.88
2018-07-12T10:58:40.233Z,22.88
2018-07-12T10:59:40.173Z,22.86
2018-07-12T11:00:40.531Z,22.93
2018-07-12T11:01:40.267Z,22.92
2018-07-12T11:02:40.409Z,22.91
2018-07-12T11:03:40.182Z,22.86
2018-07-12T11:04:41.026Z,22.95
2018-07-12T11:05:40.555Z,23.15
2018-07-12T11:06:40.227Z,23.07
2018-07-12T11:07:40.220Z,23.08
2018-07-12T11:08:40.228Z,23.06
2018-07-12T11:09:40.202Z,22.96
2018-07-12T11:10:40.256Z,22.87
2018-07-12T11:11:40.421Z,22.87
2018-07-12T11:12:40.235Z,22.89
2018-07-12T11:13:40.198Z,22.96
2018-07-12T11:14:40.414Z,23.04
2018-07-12T11:15:40.509Z,23.11
2018-07-12T11:16:40.290Z,23.22
2018-07-12T11:17:40.257Z,23.25
2018-07-12T11:18:40.246Z,23.36
2018-07-12T11:19:40.413Z,23.61
2018-07-12T11:20:40.316Z,23.52
2018-07-12T11:21:40.212Z,23.68
2018-07-12T11:22:40.724Z,23.63
2018-07-12T11:23:40.340Z,23.64
2018-07-12T11:24:40.464Z,23.67
2018-07-12T11:25:40.263Z,23.7
2018-07-12T11:26:40.349Z,23.55
2018-07-12T11:27:40.470Z,23.48
2018-07-12T11:28:40.389Z,23.43
2018-07-12T11:29:40.415Z,23.36
2018-07-12T11:30:40.487Z,23.46
2018-07-12T11:31:40.387Z,23.45
2018-07-12T11:32:41.575Z,23.53
2018-07-12T11:33:40.330Z,23.66
2018-07-12T11:34:40.225Z,23.7
2018-07-12T11:35:40.255Z,23.75
2018-07-12T11:36:41.491Z,23.76
2018-07-12T11:37:40.681Z,23.65
2018-07-12T11:38:40.288Z,23.62
2018-07-12T11:39:40.370Z,23.63
2018-07-12T11:40:40.259Z,23.56
2018-07-12T11:41:40.701Z,23.47
2018-07-12T11:42:40.460Z,23.39
2018-07-12T11:43:40.468Z,23.3
2018-07-12T11:44:41.651Z,23.56
2018-07-12T11:45:40.200Z,23.52
2018-07-12T11:46:40.313Z,23.58
2018-07-12T11:47:40.188Z,23.7
2018-07-12T11:48:40.334Z,23.75
2018-07-12T11:49:40.153Z,23.83
2018-07-12T11:50:40.182Z,23.94
2018-07-12T11:51:40.394Z,24.02
2018-07-12T11:52:40.928Z,24.07
2018-07-12T11:53:40.283Z,24.07
2018-07-12T11:54:40.342Z,24.02
2018-07-12T11:55:40.300Z,24.03
2018-07-12T11:56:40.214Z,24.1
2018-07-12T11:57:40.282Z,24.06
2018-07-12T11:58:40.218Z,24.03
2018-07-12T11:59:40.237Z,23.85
2018-07-12T12:00:40.284Z,23.94
2018-07-12T12:01:41.091Z,24.02
2018-07-12T12:02:40.234Z,24.18
2018-07-12T12:03:40.249Z,24.19
2018-07-12T12:04:40.398Z,24.26
2018-07-12T12:05:40.260Z,24.32
2018-07-12T12:06:40.252Z,24.32
2018-07-12T12:07:40.324Z,24.41
2018-07-12T12:08:40.437Z,24.54
2018-07-12T12:09:40.276Z,24.51
2018-07-12T12:10:41.530Z,24.6
2018-07-12T12:11:40.228Z,24.63
2018-07-12T12:12:40.264Z,24.72
2018-07-12T12:13:40.504Z,24.77
2018-07-12T12:14:40.214Z,24.7
2018-07-12T12:15:40.248Z,24.68
2018-07-12T12:16:40.276Z,24.77
2018-07-12T12:17:40.229Z,24.78
2018-07-12T12:18:40.231Z,24.85
2018-07-12T12:19:40.221Z,24.7
2018-07-12T12:20:40.406Z,24.61
2018-07-12T12:21:40.207Z,24.61
2018-07-12T12:22:40.337Z,24.63
2018-07-12T12:23:40.244Z,24.63
2018-07-12T12:24:40.475Z,24.61
2018-07-12T12:25:40.224Z,24.57
2018-07-12T12:26:40.223Z,24.6
2018-07-12T12:27:40.294Z,24.76
2018-07-12T12:28:40.398Z,24.81
2018-07-12T12:29:40.232Z,24.95
2018-07-12T12:30:40.902Z,24.76
2018-07-12T12:31:40.269Z,24.85
2018-07-12T12:32:40.323Z,24.87
2018-07-12T12:33:40.385Z,24.9
2018-07-12T12:34:40.536Z,24.98
2018-07-12T12:35:40.235Z,24.69
2018-07-12T12:36:40.341Z,24.58
2018-07-12T12:37:40.433Z,24.61
2018-07-12T12:38:40.314Z,24.49
2018-07-12T12:39:40.232Z,24.5
2018-07-12T12:40:40.248Z,24.31
2018-07-12T12:41:40.275Z,24.31
2018-07-12T12:42:40.359Z,24.41
2018-07-12T12:43:40.299Z,24.54
2018-07-12T12:44:40.504Z,24.67
2018-07-12T12:45:40.248Z,24.8
2018-07-12T12:46:40.260Z,24.84
2018-07-12T12:47:40.280Z,24.85
2018-07-12T12:48:40.257Z,24.91
2018-07-12T12:49:40.267Z,25
2018-07-12T12:50:40.253Z,24.94
2018-07-12T12:51:40.259Z,24.79
2018-07-12T12:52:40.284Z,24.77
2018-07-12T12:53:40.260Z,24.76
2018-07-12T12:54:40.321Z,24.62
2018-07-12T12:55:40.232Z,24.62